Time;durP1;ratioP1;P1;durP2;ratioP2;P2;SDS_P1;SDS_P2;PMS_P1;PMS_P2;Temp;Humidity;BMP_temperature;BMP_pressure;BME280_temperature;BME280_humidity;BME280_pressure;Samples;Min_cycle;Max_cycle;Signal;HPM_P1;HPM_P2
2023/12/23 00:00:44;;;;;;;0.13;0.13;;;;;;;7.07;71.42;91981.81;2054209;70;20599;-78
2023/12/23 00:03:10;;;;;;;0.45;0.17;;;;;;;7.11;74.49;91991.22;2054891;70;20130;-81
2023/12/23 00:05:36;;;;;;;0.10;0.10;;;;;;;6.78;76.82;91988.47;2054852;70;20158;-80
2023/12/23 00:08:02;;;;;;;0.20;0.20;;;;;;;6.96;75.18;92005.63;2055112;69;20172;-81
2023/12/23 00:10:27;;;;;;;1.98;0.13;;;;;;;7.04;73.24;92005.41;2055014;69;20598;-79
2023/12/23 00:12:53;;;;;;;0.32;0.20;;;;;;;7.04;74.79;92005.41;2054725;70;20135;-80
2023/12/23 00:15:19;;;;;;;0.10;0.10;;;;;;;7.02;75.21;92013.69;2055095;70;20564;-79
2023/12/23 00:17:45;;;;;;;0.20;0.20;;;;;;;7.05;76.79;92013.19;2051621;70;20250;-78
2023/12/23 00:20:11;;;;;;;0.75;0.30;;;;;;;6.82;78.74;92036.25;2054964;70;20193;-79
2023/12/23 00:22:39;;;;;;;0.20;0.20;;;;;;;7.01;77.62;92024.16;2054803;70;20169;-80
2023/12/23 00:25:05;;;;;;;0.20;0.20;;;;;;;6.89;78.62;91995.41;2054708;69;20212;-79
2023/12/23 00:27:31;;;;;;;1.35;0.20;;;;;;;6.85;79.13;92042.72;2055055;69;20303;-80
2023/12/23 00:29:56;;;;;;;1.23;0.17;;;;;;;6.82;79.51;92011.06;2051351;70;20641;-79
2023/12/23 00:32:22;;;;;;;0.10;0.10;;;;;;;6.90;75.66;92018.53;2051492;70;20593;-81
2023/12/23 00:34:49;;;;;;;0.10;0.10;;;;;;;6.93;72.92;92025.72;2054958;69;20533;-81
2023/12/23 00:37:16;;;;;;;0.10;0.10;;;;;;;7.04;74.68;92034.13;2051471;70;20220;-80
2023/12/23 00:39:42;;;;;;;0.38;0.20;;;;;;;7.00;75.18;92042.28;2054411;70;20241;-80
2023/12/23 00:42:09;;;;;;;0.20;0.20;;;;;;;6.97;75.96;92051.16;2054324;69;20154;-80
2023/12/23 00:44:35;;;;;;;1.13;0.20;;;;;;;6.95;77.13;92053.81;2051551;70;20289;-81
2023/12/23 00:47:01;;;;;;;0.20;0.20;;;;;;;6.96;77.05;92049.69;2054727;70;20142;-81
2023/12/23 00:49:27;;;;;;;0.20;0.20;;;;;;;6.79;76.95;92025.56;2054949;69;20232;-82
2023/12/23 00:51:53;;;;;;;0.20;0.20;;;;;;;6.59;78.49;92044.56;2055125;69;20150;-81
2023/12/23 00:54:19;;;;;;;0.10;0.10;;;;;;;6.70;75.76;92041.09;2052277;70;20484;-81
2023/12/23 00:56:45;;;;;;;0.22;0.20;;;;;;;6.70;76.13;92054.34;2055128;69;20134;-80
2023/12/23 00:59:11;;;;;;;2.20;0.30;;;;;;;6.85;77.38;92057.44;2054825;70;20536;-82
2023/12/23 01:01:37;;;;;;;0.30;0.25;;;;;;;7.04;76.76;92075.38;2055033;70;20142;-79
2023/12/23 01:04:03;;;;;;;0.35;0.20;;;;;;;6.95;78.22;92068.53;2051396;70;20141;-80
2023/12/23 01:06:29;;;;;;;0.68;0.20;;;;;;;6.88;77.44;92069.50;2051728;70;20134;-80
2023/12/23 01:08:55;;;;;;;1.35;0.20;;;;;;;6.89;77.75;92048.56;2055144;70;20161;-81
2023/12/23 01:11:21;;;;;;;0.25;0.25;;;;;;;6.74;78.39;92074.91;2054165;70;20534;-81
2023/12/23 01:13:46;;;;;;;2.17;0.30;;;;;;;6.78;79.14;92074.44;2055079;69;20146;-80
2023/12/23 01:16:13;;;;;;;0.70;0.13;;;;;;;6.89;78.08;92070.97;2054570;70;20190;-79
2023/12/23 01:18:39;;;;;;;0.30;0.20;;;;;;;6.98;78.22;92084.13;2051272;70;20157;-80
2023/12/23 01:21:05;;;;;;;0.20;0.20;;;;;;;6.97;78.07;92087.53;2054337;70;20216;-80
2023/12/23 01:23:31;;;;;;;0.20;0.20;;;;;;;6.97;78.13;92093.88;2048578;70;20142;-80
2023/12/23 01:25:58;;;;;;;0.10;0.10;;;;;;;6.77;79.02;92089.75;2052083;70;20233;-80
2023/12/23 01:28:24;;;;;;;0.20;0.20;;;;;;;6.69;79.96;92103.97;2057866;69;20153;-79
2023/12/23 01:30:49;;;;;;;0.20;0.13;;;;;;;6.73;79.50;92137.03;2051524;70;20172;-81
2023/12/23 01:33:15;;;;;;;0.10;0.10;;;;;;;6.70;78.78;92122.19;2054860;70;20130;-79
2023/12/23 01:35:41;;;;;;;0.30;0.20;;;;;;;6.79;78.27;92120.66;2051128;70;20607;-79
2023/12/23 01:38:09;;;;;;;0.30;0.13;;;;;;;6.65;79.08;92133.72;2054731;70;20649;-79
2023/12/23 01:40:40;;;;;;;0.28;0.28;;;;;;;6.38;79.92;92145.97;2053432;70;20309;-80
2023/12/23 01:43:05;;;;;;;0.43;0.20;;;;;;;6.65;79.37;92140.06;2054900;69;20181;-80
2023/12/23 01:45:31;;;;;;;0.20;0.20;;;;;;;6.51;78.73;92142.66;2051398;70;20154;-79
2023/12/23 01:48:02;;;;;;;0.35;0.20;;;;;;;6.34;78.14;92149.22;2055024;69;20150;-80
2023/12/23 01:50:29;;;;;;;0.30;0.20;;;;;;;6.28;79.90;92162.78;2054680;70;20148;-78
2023/12/23 01:52:56;;;;;;;0.57;0.20;;;;;;;6.39;79.93;92141.09;2054849;69;20157;-80
2023/12/23 01:55:26;;;;;;;0.10;0.10;;;;;;;6.56;79.34;92155.56;2054895;69;20233;-79
2023/12/23 01:57:54;;;;;;;0.10;0.10;;;;;;;6.67;78.80;92159.75;2051131;70;20598;-81
2023/12/23 02:00:22;;;;;;;0.15;0.15;;;;;;;6.66;74.57;92172.28;2054687;70;20142;-80
2023/12/23 02:02:48;;;;;;;0.10;0.10;;;;;;;6.74;74.53;92172.81;2054034;70;20157;-80
2023/12/23 02:05:15;;;;;;;0.32;0.10;;;;;;;6.83;75.98;92179.69;2051321;70;20158;-79
2023/12/23 02:07:45;;;;;;;0.75;0.22;;;;;;;6.80;77.58;92192.06;2054645;69;20239;-79
2023/12/23 02:10:11;;;;;;;0.10;0.10;;;;;;;6.72;74.99;92167.09;2053953;69;20180;-82
2023/12/23 02:13:09;;;;;;;0.80;0.20;;;;;;;6.81;74.72;92201.94;2054040;70;20161;-80
2023/12/23 02:15:37;;;;;;;0.20;0.20;;;;;;;6.67;77.08;92190.53;2053830;70;20158;-78
2023/12/23 02:18:03;;;;;;;0.20;0.20;;;;;;;6.40;77.54;92176.84;2051140;70;20590;-79
2023/12/23 02:20:29;;;;;;;0.10;0.10;;;;;;;6.57;78.54;92198.97;2051401;70;20154;-80
2023/12/23 02:22:56;;;;;;;0.40;0.10;;;;;;;6.76;78.94;92192.53;2053854;70;20192;-80
2023/12/23 02:25:23;;;;;;;1.27;0.20;;;;;;;6.68;77.50;92208.75;2055053;70;20150;-78
2023/12/23 02:27:58;;;;;;;0.10;0.10;;;;;;;6.66;76.08;92197.47;2052198;70;20154;-81
2023/12/23 02:30:27;;;;;;;0.10;0.10;;;;;;;6.63;74.73;92190.25;2053858;70;20145;-81
2023/12/23 02:32:54;;;;;;;0.10;0.10;;;;;;;6.68;74.61;92194.06;2054674;70;20146;-80
2023/12/23 02:35:26;;;;;;;0.00;0.00;;;;;;;6.70;73.63;92200.53;2055022;69;20145;-81
2023/12/23 02:37:52;;;;;;;0.20;0.20;;;;;;;6.91;71.86;92183.00;2055078;70;20157;-79
2023/12/23 02:40:24;;;;;;;0.20;0.20;;;;;;;6.86;75.13;92204.38;2051246;70;20150;-80
2023/12/23 02:42:50;;;;;;;0.10;0.10;;;;;;;6.75;74.55;92204.31;2051266;70;20154;-79
2023/12/23 02:45:17;;;;;;;0.10;0.10;;;;;;;6.57;74.25;92181.47;2054831;70;20503;-78
2023/12/23 02:47:43;;;;;;;0.10;0.10;;;;;;;6.72;73.41;92188.72;2051065;70;20209;-80
2023/12/23 02:50:08;;;;;;;0.10;0.10;;;;;;;6.87;73.20;92197.47;2050889;70;20146;-79
2023/12/23 02:52:36;;;;;;;0.10;0.10;;;;;;;6.75;75.83;92193.88;2054599;70;20726;-79
2023/12/23 02:55:03;;;;;;;0.10;0.10;;;;;;;6.84;74.62;92200.72;2053901;70;20134;-79
2023/12/23 02:57:29;;;;;;;0.40;0.10;;;;;;;6.80;76.10;92206.06;2054589;70;20224;-80
2023/12/23 02:59:56;;;;;;;0.15;0.15;;;;;;;6.69;75.32;92204.66;2054597;70;20224;-80
2023/12/23 03:02:21;;;;;;;0.30;0.15;;;;;;;6.79;72.79;92222.13;2051067;70;20226;-81
2023/12/23 03:04:47;;;;;;;0.10;0.10;;;;;;;6.67;76.24;92203.78;2054197;70;20145;-81
2023/12/23 03:07:13;;;;;;;0.10;0.10;;;;;;;6.75;73.93;92226.72;2051134;70;20146;-81
2023/12/23 03:09:40;;;;;;;0.10;0.10;;;;;;;6.81;76.06;92235.50;2054529;70;20249;-82
2023/12/23 03:12:06;;;;;;;0.20;0.20;;;;;;;6.71;77.88;92227.16;2054739;70;20177;-80
2023/12/23 03:14:32;;;;;;;0.15;0.15;;;;;;;6.64;78.47;92239.25;2056267;70;20495;-80
2023/12/23 03:16:57;;;;;;;1.55;0.20;;;;;;;6.60;74.55;92231.34;2054268;70;20153;-80
2023/12/23 03:19:23;;;;;;;0.20;0.20;;;;;;;6.68;75.07;92225.56;2055478;70;20227;-80
2023/12/23 03:21:50;;;;;;;0.10;0.10;;;;;;;6.79;76.26;92213.72;2051800;70;20149;-80
2023/12/23 03:24:16;;;;;;;0.20;0.20;;;;;;;6.68;74.32;92225.56;2054245;70;20142;-81
2023/12/23 03:26:42;;;;;;;0.10;0.10;;;;;;;6.35;76.06;92214.97;2051490;70;20217;-80
2023/12/23 03:29:11;;;;;;;0.20;0.20;;;;;;;6.61;78.11;92212.50;2054317;70;20146;-80
2023/12/23 03:31:38;;;;;;;0.10;0.10;;;;;;;6.44;78.00;92221.84;2051642;70;20185;-80
2023/12/23 03:34:04;;;;;;;0.00;0.00;;;;;;;6.41;78.60;92216.72;2055144;70;20174;-81
2023/12/23 03:36:32;;;;;;;1.27;0.20;;;;;;;6.14;80.27;92220.53;2054750;69;20631;-78
2023/12/23 03:38:59;;;;;;;1.75;0.35;;;;;;;6.58;78.58;92239.59;2051075;70;20127;-82
2023/12/23 03:41:24;;;;;;;0.10;0.10;;;;;;;6.58;79.22;92242.38;2051443;70;20185;-80
2023/12/23 03:43:52;;;;;;;0.20;0.13;;;;;;;6.54;78.76;92253.28;2048391;70;20151;-80
2023/12/23 03:46:19;;;;;;;0.20;0.20;;;;;;;6.58;79.93;92247.25;2051582;70;20225;-80
2023/12/23 03:48:49;;;;;;;0.20;0.20;;;;;;;6.63;79.65;92255.31;2048110;70;20138;-80
2023/12/23 03:51:15;;;;;;;0.10;0.10;;;;;;;6.56;79.35;92253.44;2051502;70;20143;-81
2023/12/23 03:53:44;;;;;;;0.10;0.10;;;;;;;6.30;75.93;92226.47;2051317;70;20185;-81
2023/12/23 03:56:10;;;;;;;0.10;0.10;;;;;;;6.71;76.04;92241.16;2048637;70;20134;-81
2023/12/23 03:58:39;;;;;;;0.20;0.10;;;;;;;6.40;78.48;92229.22;2048248;70;20551;-80
2023/12/23 04:01:06;;;;;;;0.68;0.30;;;;;;;6.42;77.45;92229.38;2052135;70;20227;-81
2023/12/23 04:03:34;;;;;;;0.20;0.20;;;;;;;6.22;79.15;92248.28;2051422;70;20142;-82
2023/12/23 04:06:02;;;;;;;0.32;0.20;;;;;;;6.45;78.38;92222.59;2048213;70;20146;-82
2023/12/23 04:08:29;;;;;;;0.20;0.20;;;;;;;6.62;78.15;92241.94;2051407;70;20238;-81
2023/12/23 04:10:55;;;;;;;0.10;0.10;;;;;;;6.72;77.88;92239.09;2051552;70;20134;-79
2023/12/23 04:13:20;;;;;;;0.47;0.15;;;;;;;6.71;78.59;92241.16;2048062;70;20147;-81
2023/12/23 04:15:46;;;;;;;0.15;0.15;;;;;;;6.50;79.82;92257.88;2048110;70;20174;-81
2023/12/23 04:18:12;;;;;;;0.10;0.10;;;;;;;6.54;79.92;92253.28;2051442;70;20662;-81
2023/12/23 04:20:37;;;;;;;1.15;0.20;;;;;;;6.40;79.91;92246.00;2051464;70;20659;-81
2023/12/23 04:23:03;;;;;;;0.10;0.10;;;;;;;6.39;80.22;92250.13;2050977;70;20142;-81
2023/12/23 04:25:29;;;;;;;0.93;0.20;;;;;;;6.38;80.45;92254.28;2048222;70;20241;-81
2023/12/23 04:27:58;;;;;;;0.20;0.20;;;;;;;6.38;80.85;92249.41;2048380;70;20192;-82
2023/12/23 04:30:25;;;;;;;0.20;0.10;;;;;;;6.45;79.77;92240.09;2051516;70;20150;-82
2023/12/23 04:32:51;;;;;;;0.20;0.20;;;;;;;6.45;79.04;92248.47;2051580;70;20189;-81
2023/12/23 04:35:17;;;;;;;2.67;0.20;;;;;;;6.59;79.35;92252.25;2048041;70;20142;-81
2023/12/23 04:37:45;;;;;;;0.30;0.30;;;;;;;6.40;80.89;92262.78;2048212;70;20150;-81
2023/12/23 04:40:11;;;;;;;0.10;0.10;;;;;;;6.52;80.45;92255.22;2045485;70;20164;-80
2023/12/23 04:42:37;;;;;;;0.15;0.13;;;;;;;6.50;80.79;92255.09;2051489;70;20254;-79
2023/12/23 04:45:04;;;;;;;0.25;0.20;;;;;;;6.22;81.41;92257.41;2048203;70;20176;-79
2023/12/23 04:47:30;;;;;;;1.35;0.10;;;;;;;6.31;82.00;92270.59;2050889;70;20142;-79
2023/12/23 04:49:55;;;;;;;0.30;0.20;;;;;;;6.44;80.85;92280.56;2047981;70;20155;-79
2023/12/23 04:52:21;;;;;;;0.20;0.20;;;;;;;6.26;81.36;92254.16;2050892;70;20216;-78
2023/12/23 04:54:47;;;;;;;0.10;0.10;;;;;;;6.40;80.46;92248.81;2051365;70;20146;-79
2023/12/23 04:57:12;;;;;;;0.10;0.10;;;;;;;6.21;80.47;92244.03;2048162;70;20154;-78
2023/12/23 04:59:40;;;;;;;3.33;1.20;;;;;;;6.02;81.38;92275.56;2050911;70;20506;-79
2023/12/23 05:02:10;;;;;;;0.22;0.20;;;;;;;6.07;81.58;92268.94;2049200;70;20154;-78
2023/12/23 05:04:36;;;;;;;0.20;0.20;;;;;;;6.00;81.83;92256.59;2050798;70;20134;-79
2023/12/23 05:07:03;;;;;;;0.70;0.70;;;;;;;6.12;77.98;92242.72;2051132;70;20153;-79
2023/12/23 05:09:31;;;;;;;1.65;0.30;;;;;;;6.09;81.25;92261.44;2047937;70;20317;-79
2023/12/23 05:12:00;;;;;;;0.32;0.30;;;;;;;6.31;80.97;92247.50;2049657;70;20695;-78
2023/12/23 05:14:25;;;;;;;2.45;0.88;;;;;;;6.18;80.92;92251.53;2050930;70;20134;-79
2023/12/23 05:16:53;;;;;;;0.40;0.40;;;;;;;6.19;80.75;92243.91;2048333;70;20150;-80
2023/12/23 05:19:18;;;;;;;0.30;0.30;;;;;;;6.23;80.73;92253.28;2047886;70;20164;-80
2023/12/23 05:21:44;;;;;;;1.60;0.70;;;;;;;6.11;81.03;92258.03;2047801;70;20167;-78
2023/12/23 05:24:09;;;;;;;0.45;0.30;;;;;;;6.26;81.35;92259.75;2051637;70;20571;-78
2023/12/23 05:26:36;;;;;;;2.30;1.50;;;;;;;6.32;80.69;92249.72;2047912;70;20173;-78
2023/12/23 05:29:06;;;;;;;0.30;0.30;;;;;;;6.23;81.69;92260.91;2048022;70;20227;-78
2023/12/23 05:31:34;;;;;;;0.60;0.60;;;;;;;6.16;82.03;92254.19;2047972;70;20166;-80
2023/12/23 05:34:00;;;;;;;1.00;0.88;;;;;;;6.17;81.87;92255.66;2051902;70;20195;-80
2023/12/23 05:36:26;;;;;;;0.93;0.80;;;;;;;6.19;82.12;92235.50;2051510;70;20703;-80
2023/12/23 05:38:51;;;;;;;2.60;1.00;;;;;;;5.93;82.99;92254.69;2048023;70;20157;-78
2023/12/23 05:41:17;;;;;;;1.00;0.80;;;;;;;5.82;82.90;92244.13;2051826;70;20162;-81
2023/12/23 05:43:48;;;;;;;2.63;0.77;;;;;;;5.98;83.24;92244.53;2051765;70;20218;-80
2023/12/23 05:46:14;;;;;;;0.70;0.70;;;;;;;5.98;83.13;92269.69;2051746;70;20142;-80
2023/12/23 05:48:40;;;;;;;0.30;0.30;;;;;;;5.89;83.20;92264.81;2051816;70;20205;-81
2023/12/23 05:51:10;;;;;;;0.30;0.30;;;;;;;6.08;82.70;92270.38;2051774;70;20220;-80
2023/12/23 05:53:36;;;;;;;0.30;0.30;;;;;;;6.04;82.22;92262.44;2051796;70;20584;-79
2023/12/23 05:56:09;;;;;;;0.20;0.20;;;;;;;6.06;82.80;92267.47;2051620;70;20273;-78
2023/12/23 05:58:35;;;;;;;0.32;0.32;;;;;;;6.14;81.49;92265.25;2048364;70;20150;-78
2023/12/23 06:01:02;;;;;;;0.20;0.20;;;;;;;6.27;81.56;92270.31;2050827;70;20142;-81
2023/12/23 06:03:28;;;;;;;0.75;0.20;;;;;;;6.28;81.46;92271.81;2051452;70;20134;-81
2023/12/23 06:05:55;;;;;;;0.25;0.25;;;;;;;5.89;81.82;92262.03;2051978;70;20146;-80
2023/12/23 06:08:21;;;;;;;0.20;0.20;;;;;;;6.04;80.43;92279.22;2051578;70;20225;-80
2023/12/23 06:10:46;;;;;;;0.40;0.25;;;;;;;6.23;79.98;92275.66;2047498;70;20174;-83
2023/12/23 06:13:12;;;;;;;0.60;0.40;;;;;;;6.04;79.35;92270.09;2048061;70;20205;-81
2023/12/23 06:15:38;;;;;;;0.95;0.63;;;;;;;6.15;79.17;92260.38;2048189;70;20174;-79
2023/12/23 06:18:03;;;;;;;0.30;0.30;;;;;;;6.26;80.14;92270.94;2047608;70;20182;-82
2023/12/23 06:20:30;;;;;;;0.60;0.30;;;;;;;6.23;80.06;92275.66;2047540;70;20147;-82
2023/12/23 06:22:56;;;;;;;0.22;0.22;;;;;;;6.22;80.36;92245.47;2048116;70;20234;-81
2023/12/23 06:25:22;;;;;;;0.43;0.30;;;;;;;6.33;80.36;92264.44;2048234;70;20145;-81
2023/12/23 06:27:47;;;;;;;1.85;0.30;;;;;;;6.16;81.40;92247.88;2048107;70;20165;-79
2023/12/23 06:30:13;;;;;;;1.38;0.80;;;;;;;6.16;81.25;92245.06;2044789;70;20150;-80
2023/12/23 06:32:39;;;;;;;0.43;0.40;;;;;;;6.19;81.52;92261.41;2047470;70;20591;-81
2023/12/23 06:35:06;;;;;;;0.40;0.40;;;;;;;6.29;80.50;92264.88;2048143;70;20229;-80
2023/12/23 06:37:31;;;;;;;0.75;0.30;;;;;;;6.10;81.21;92273.34;2048270;70;20237;-82
2023/12/23 06:39:59;;;;;;;0.50;0.38;;;;;;;6.21;80.61;92253.13;2048118;70;20253;-82
2023/12/23 06:42:25;;;;;;;0.57;0.47;;;;;;;6.36;79.65;92275.16;2048033;70;20230;-80
2023/12/23 06:44:51;;;;;;;0.57;0.30;;;;;;;6.40;79.82;92269.09;2048022;70;20162;-81
2023/12/23 06:47:17;;;;;;;3.75;0.35;;;;;;;6.26;80.55;92270.94;2048150;70;20201;-80
2023/12/23 06:49:42;;;;;;;0.30;0.30;;;;;;;6.07;78.65;92269.66;2049942;70;20178;-80
2023/12/23 06:52:10;;;;;;;0.47;0.38;;;;;;;6.07;77.66;92268.94;2053620;70;20194;-82
2023/12/23 06:54:36;;;;;;;2.08;0.38;;;;;;;6.15;78.53;92243.63;2048851;70;20612;-81
2023/12/23 06:57:03;;;;;;;0.47;0.40;;;;;;;6.12;80.12;92262.28;2048466;70;20229;-80
2023/12/23 06:59:29;;;;;;;0.90;0.50;;;;;;;6.17;80.05;92271.69;2048437;70;20226;-80
2023/12/23 07:01:56;;;;;;;1.65;0.60;;;;;;;6.08;80.96;92268.31;2048464;70;20149;-80
2023/12/23 07:04:23;;;;;;;0.47;0.30;;;;;;;6.21;80.23;92250.34;2048133;70;20143;-79
2023/12/23 07:06:51;;;;;;;1.75;0.60;;;;;;;6.12;80.47;92245.53;2048658;70;20499;-79
2023/12/23 07:09:17;;;;;;;0.32;0.30;;;;;;;5.80;82.15;92278.22;2049391;70;20146;-80
2023/12/23 07:11:44;;;;;;;0.85;0.60;;;;;;;6.15;81.00;92279.94;2051468;70;20215;-82
2023/12/23 07:14:10;;;;;;;2.50;0.55;;;;;;;5.95;80.69;92266.00;2052132;70;20590;-80
2023/12/23 07:16:39;;;;;;;0.55;0.55;;;;;;;6.20;80.09;92292.88;2051361;70;20179;-81
2023/12/23 07:19:06;;;;;;;0.73;0.50;;;;;;;6.11;80.62;92294.34;2051929;70;20123;-82
2023/12/23 07:21:32;;;;;;;1.27;0.40;;;;;;;6.05;80.17;92305.13;2048511;70;20142;-82
2023/12/23 07:23:57;;;;;;;2.05;0.52;;;;;;;6.06;81.28;92303.78;2052601;70;20176;-81
2023/12/23 07:26:23;;;;;;;0.88;0.70;;;;;;;5.92;79.17;92300.72;2052826;70;20142;-81
2023/12/23 07:28:49;;;;;;;0.95;0.70;;;;;;;5.56;79.17;92304.41;2052529;70;20486;-82
2023/12/23 07:31:16;;;;;;;2.58;1.25;;;;;;;5.99;78.83;92318.66;2052696;70;20147;-78
2023/12/23 07:33:44;;;;;;;1.98;1.02;;;;;;;6.24;78.70;92333.03;2052296;70;20145;-80
2023/12/23 07:36:10;;;;;;;1.25;0.85;;;;;;;6.09;79.97;92333.31;2052659;70;20153;-80
2023/12/23 07:38:35;;;;;;;4.82;1.00;;;;;;;6.04;80.37;92328.78;2052200;70;20594;-79
2023/12/23 07:41:01;;;;;;;1.38;0.85;;;;;;;6.14;80.32;92342.72;2051954;70;20153;-80
2023/12/23 07:43:27;;;;;;;1.77;1.20;;;;;;;6.34;79.80;92344.19;2048625;70;20162;-83
2023/12/23 07:45:53;;;;;;;1.50;0.80;;;;;;;6.40;80.21;92349.47;2052219;70;20134;-82
2023/12/23 07:48:19;;;;;;;0.80;0.77;;;;;;;6.15;80.46;92341.44;2052045;70;20214;-84
2023/12/23 07:50:44;;;;;;;0.80;0.63;;;;;;;6.10;80.87;92327.16;2051952;70;20142;-83
2023/12/23 07:53:10;;;;;;;0.77;0.60;;;;;;;6.32;80.11;92318.84;2048675;70;20143;-82
2023/12/23 07:55:36;;;;;;;1.40;0.80;;;;;;;6.44;79.71;92321.78;2051973;70;20158;-80
2023/12/23 07:58:07;;;;;;;1.88;1.05;;;;;;;6.16;80.65;92298.91;2048542;70;20157;-81
2023/12/23 08:00:33;;;;;;;1.02;0.55;;;;;;;6.23;78.99;92297.25;2051069;70;20229;-80
2023/12/23 08:02:58;;;;;;;0.63;0.47;;;;;;;6.60;75.21;92301.28;2052005;70;20130;-81
2023/12/23 08:05:24;;;;;;;3.60;1.90;;;;;;;6.63;76.80;92299.34;2051909;70;20153;-80
2023/12/23 08:07:49;;;;;;;6.30;3.00;;;;;;;6.39;78.45;92311.66;2048433;70;20598;-81
2023/12/23 08:10:17;;;;;;;2.40;1.00;;;;;;;6.21;77.61;92308.31;2051069;70;20158;-81
2023/12/23 08:12:42;;;;;;;0.93;0.50;;;;;;;6.36;77.31;92317.09;2051861;70;20138;-80
2023/12/23 08:15:08;;;;;;;1.48;1.00;;;;;;;6.16;78.87;92317.75;2051208;70;20146;-80
2023/12/23 08:17:36;;;;;;;4.65;3.20;;;;;;;6.23;78.60;92317.59;2052041;70;20511;-81
2023/12/23 08:20:03;;;;;;;5.28;3.08;;;;;;;6.39;78.03;92323.56;2051991;70;20598;-81
2023/12/23 08:22:28;;;;;;;4.30;2.45;;;;;;;6.53;78.37;92323.81;2051362;70;20522;-80
2023/12/23 08:24:54;;;;;;;3.88;2.60;;;;;;;6.63;78.62;92318.91;2052204;70;20205;-81
2023/12/23 08:27:20;;;;;;;4.85;3.70;;;;;;;6.51;77.73;92307.63;2052101;70;20157;-80
2023/12/23 08:29:46;;;;;;;11.75;9.02;;;;;;;6.50;78.47;92314.53;2051899;70;20209;-81
2023/12/23 08:32:11;;;;;;;3.88;1.70;;;;;;;6.74;78.79;92298.72;2048107;70;20146;-79
2023/12/23 08:34:39;;;;;;;1.27;0.90;;;;;;;6.79;78.92;92297.66;2051774;70;20158;-83
2023/12/23 08:37:06;;;;;;;2.40;0.80;;;;;;;6.94;79.18;92304.22;2049282;70;20135;-79
2023/12/23 08:39:31;;;;;;;0.77;0.70;;;;;;;6.86;79.35;92288.31;2054754;70;20242;-79
2023/12/23 08:41:57;;;;;;;2.90;1.80;;;;;;;6.72;75.66;92284.56;2052265;70;20182;-81
2023/12/23 08:44:23;;;;;;;3.25;1.98;;;;;;;6.73;74.07;92283.22;2051938;70;20142;-80
2023/12/23 08:46:48;;;;;;;5.50;3.13;;;;;;;6.58;74.89;92261.97;2051935;70;20153;-79
2023/12/23 08:49:14;;;;;;;4.75;3.20;;;;;;;6.85;75.13;92284.06;2051811;70;20142;-81
2023/12/23 08:51:40;;;;;;;4.47;2.90;;;;;;;7.04;74.85;92290.88;2052052;70;20569;-81
2023/12/23 08:54:07;;;;;;;3.42;2.45;;;;;;;7.12;75.71;92283.75;2051948;70;20146;-81
2023/12/23 08:56:32;;;;;;;2.55;1.75;;;;;;;7.10;74.74;92302.47;2048184;70;20614;-80
2023/12/23 08:58:58;;;;;;;2.60;1.80;;;;;;;7.08;74.87;92294.69;2048222;70;20169;-80
2023/12/23 09:01:23;;;;;;;2.97;2.05;;;;;;;6.68;73.15;92300.34;2048600;70;20510;-81
2023/12/23 09:03:50;;;;;;;2.38;1.70;;;;;;;6.71;73.39;92308.28;2048144;70;20153;-80
2023/12/23 09:06:20;;;;;;;1.60;1.20;;;;;;;6.73;73.18;92307.69;2050994;70;20194;-81
2023/12/23 09:08:51;;;;;;;2.08;1.25;;;;;;;6.84;72.23;92295.88;2051718;70;20379;-81
2023/12/23 09:11:24;;;;;;;3.28;2.10;;;;;;;7.11;72.15;92301.16;2048189;70;20138;-80
2023/12/23 09:13:50;;;;;;;2.72;1.88;;;;;;;7.27;72.88;92298.69;2050940;70;20142;-81
2023/12/23 09:16:17;;;;;;;1.60;1.20;;;;;;;7.24;74.68;92302.69;2051927;70;20229;-80
2023/12/23 09:18:43;;;;;;;2.50;1.30;;;;;;;7.27;74.87;92307.09;2048107;70;20590;-81
2023/12/23 09:21:10;;;;;;;2.63;1.33;;;;;;;7.29;74.54;92302.38;2051918;70;20146;-81
2023/12/23 09:23:35;;;;;;;1.83;1.13;;;;;;;7.48;74.61;92307.13;2051780;70;20158;-81
2023/12/23 09:26:03;;;;;;;2.50;1.35;;;;;;;7.58;75.17;92324.56;2051818;70;20150;-80
2023/12/23 09:28:29;;;;;;;2.80;1.70;;;;;;;6.90;75.70;92310.25;2051752;70;20134;-81
2023/12/23 09:30:56;;;;;;;4.40;2.38;;;;;;;6.92;73.13;92293.63;2051813;70;20285;-81
2023/12/23 09:33:23;;;;;;;4.57;2.85;;;;;;;7.41;73.32;92312.91;2050927;70;20286;-81
2023/12/23 09:35:49;;;;;;;5.32;1.60;;;;;;;7.42;72.18;92295.50;2051776;70;20594;-80
2023/12/23 09:38:14;;;;;;;9.50;4.43;;;;;;;7.10;73.97;92291.28;2048286;70;20146;-81
2023/12/23 09:40:40;;;;;;;13.05;6.85;;;;;;;7.36;73.76;92281.09;2051918;70;20149;-83
2023/12/23 09:43:06;;;;;;;8.65;5.00;;;;;;;7.50;73.22;92276.41;2051900;70;20509;-81
2023/12/23 09:45:33;;;;;;;4.15;2.83;;;;;;;7.43;74.03;92313.78;2051748;70;20509;-81
2023/12/23 09:48:00;;;;;;;5.72;2.53;;;;;;;7.31;73.59;92285.69;2051030;70;20178;-80
2023/12/23 09:50:27;;;;;;;4.43;3.15;;;;;;;7.11;73.34;92295.56;2051734;70;20236;-81
2023/12/23 09:52:55;;;;;;;4.95;2.80;;;;;;;7.16;72.65;92266.50;2051770;70;20158;-82
2023/12/23 09:55:21;;;;;;;5.63;2.63;;;;;;;7.19;72.25;92301.69;2051730;70;20217;-82
2023/12/23 09:57:47;;;;;;;5.55;2.40;;;;;;;7.40;72.02;92292.56;2051630;70;20181;-82
2023/12/23 10:00:14;;;;;;;3.67;2.30;;;;;;;7.47;73.85;92288.09;2048220;70;20142;-81
2023/12/23 10:02:42;;;;;;;3.92;1.90;;;;;;;7.48;72.94;92292.38;2051836;70;20158;-83
2023/12/23 10:05:08;;;;;;;3.70;2.00;;;;;;;7.68;71.62;92284.53;2051737;70;20163;-82
2023/12/23 10:07:33;;;;;;;3.17;1.88;;;;;;;7.79;72.63;92269.84;2051803;70;20145;-83
2023/12/23 10:09:59;;;;;;;2.72;1.90;;;;;;;7.67;72.68;92255.06;2051074;70;20245;-83
2023/12/23 10:12:26;;;;;;;22.05;11.07;;;;;;;7.26;72.71;92235.66;2052205;70;20147;-83
2023/12/23 10:14:54;;;;;;;10.35;5.72;;;;;;;7.44;72.32;92253.63;2051835;70;20242;-81
2023/12/23 10:17:20;;;;;;;5.13;3.45;;;;;;;7.24;71.53;92232.69;2051757;70;20225;-81
2023/12/23 10:19:48;;;;;;;7.38;3.63;;;;;;;7.27;71.46;92226.63;2051363;70;20154;-81
2023/12/23 10:22:18;;;;;;;4.40;2.50;;;;;;;7.57;71.79;92229.94;2051753;70;20150;-81
2023/12/23 10:24:45;;;;;;;3.97;2.35;;;;;;;7.79;71.55;92236.97;2051775;70;20185;-82
2023/12/23 10:27:14;;;;;;;3.95;2.00;;;;;;;7.74;72.16;92218.41;2051040;70;20233;-80
2023/12/23 10:29:41;;;;;;;2.60;1.80;;;;;;;7.81;69.14;92237.09;2053939;70;20157;-80
2023/12/23 10:32:11;;;;;;;4.15;2.53;;;;;;;7.71;69.24;92216.09;2052040;70;20164;-79
2023/12/23 10:34:50;;;;;;;5.20;1.95;;;;;;;7.78;69.70;92218.66;2051655;70;20170;-80
2023/12/23 10:37:17;;;;;;;4.28;2.17;;;;;;;7.89;69.51;92220.78;2051838;70;20134;-80
2023/12/23 10:39:55;;;;;;;3.17;2.17;;;;;;;7.76;69.08;92217.81;2051949;70;20147;-82
2023/12/23 10:42:23;;;;;;;5.00;3.22;;;;;;;7.81;69.33;92211.13;2048329;70;20142;-82
2023/12/23 10:44:51;;;;;;;4.80;2.45;;;;;;;7.60;70.10;92217.50;2051612;70;20165;-83
2023/12/23 10:47:17;;;;;;;4.80;2.80;;;;;;;7.47;69.62;92229.28;2051879;70;20154;-84
2023/12/23 10:49:46;;;;;;;5.55;3.15;;;;;;;7.48;70.19;92211.16;2051584;70;20593;-82
2023/12/23 10:52:13;;;;;;;6.20;3.67;;;;;;;7.82;70.08;92238.53;2051834;70;20614;-82
2023/12/23 10:54:39;;;;;;;5.18;2.00;;;;;;;7.73;69.28;92196.59;2050845;70;20173;-82
2023/12/23 10:57:09;;;;;;;2.78;2.00;;;;;;;8.19;68.95;92206.44;2048026;70;20169;-81
2023/12/23 10:59:36;;;;;;;3.08;1.50;;;;;;;8.39;66.90;92196.50;2051591;70;20147;-83
2023/12/23 11:02:15;;;;;;;2.08;1.08;;;;;;;8.59;67.20;92225.78;2050845;70;20138;-82
2023/12/23 11:04:48;;;;;;;2.70;2.13;;;;;;;8.68;69.32;92212.97;2050657;70;20170;-82
2023/12/23 11:07:17;;;;;;;4.63;3.55;;;;;;;8.53;69.66;92219.06;2051631;70;20611;-83
2023/12/23 11:09:50;;;;;;;0.98;0.68;;;;;;;8.70;67.71;92207.47;2051580;70;20689;-82
2023/12/23 11:12:20;;;;;;;0.90;0.50;;;;;;;8.90;67.04;92203.06;2050914;70;20586;-81
2023/12/23 11:14:46;;;;;;;0.70;0.60;;;;;;;9.08;68.15;92219.50;2051695;70;20150;-81
2023/12/23 11:17:23;;;;;;;1.08;0.80;;;;;;;9.10;67.51;92197.88;2051865;70;20269;-82
2023/12/23 11:19:49;;;;;;;1.00;0.50;;;;;;;9.07;66.69;92195.56;2051606;70;20134;-80
2023/12/23 11:22:38;;;;;;;0.50;0.43;;;;;;;9.19;64.74;92204.72;2051781;70;20154;-82
2023/12/23 11:25:35;;;;;;;0.98;0.52;;;;;;;9.44;63.79;92198.41;2051789;70;20567;-82
2023/12/23 11:28:12;;;;;;;0.98;0.70;;;;;;;9.41;66.25;92179.97;2050397;70;20146;-82
2023/12/23 11:30:59;;;;;;;3.33;1.73;;;;;;;9.36;66.53;92183.91;2048436;70;20254;-80
2023/12/23 11:33:32;;;;;;;1.48;0.95;;;;;;;9.27;68.54;92184.78;2051322;70;20260;-82
2023/12/23 11:36:00;;;;;;;3.53;1.73;;;;;;;9.10;67.71;92192.28;2051899;70;20166;-79
2023/12/23 11:38:47;;;;;;;3.38;2.20;;;;;;;9.07;69.41;92179.47;2052530;70;20139;-80
2023/12/23 11:41:13;;;;;;;6.63;3.88;;;;;;;8.98;69.23;92154.31;2051690;70;20145;-83